Time;durP1;ratioP1;P1;durP2;ratioP2;P2;SDS_P1;SDS_P2;PMS_P1;PMS_P2;Temp;Humidity;BMP_temperature;BMP_pressure;BME280_temperature;BME280_humidity;BME280_pressure;Samples;Min_cycle;Max_cycle;Signal;HPM_P1;HPM_P2
2021/05/26 00:00:42;;;;;;;24.15;18.80;;;;;;;8.43;100.00;100909.19;6199119;28;20050;-77
2021/05/26 00:03:43;;;;;;;25.40;17.45;;;;;;;8.36;100.00;100911.22;6198738;28;20421;-75
2021/05/26 00:06:44;;;;;;;22.20;17.13;;;;;;;8.38;100.00;100895.44;6198237;28;20073;-76
2021/05/26 00:09:45;;;;;;;25.90;17.27;;;;;;;8.39;100.00;100897.13;6198685;28;20058;-76
2021/05/26 00:12:47;;;;;;;24.45;17.33;;;;;;;8.35;100.00;100900.75;6198799;28;20046;-76
2021/05/26 00:15:48;;;;;;;22.00;16.40;;;;;;;8.29;100.00;100898.41;6198687;28;20042;-76
2021/05/26 00:18:49;;;;;;;18.52;13.73;;;;;;;8.33;100.00;100895.59;6198485;28;20073;-76
2021/05/26 00:21:50;;;;;;;18.40;12.02;;;;;;;8.20;100.00;100893.56;6198114;28;20050;-76
2021/05/26 00:24:50;;;;;;;15.48;10.57;;;;;;;8.16;100.00;100900.66;6198880;28;20160;-77
2021/05/26 00:27:58;;;;;;;16.20;9.80;;;;;;;8.23;100.00;100891.66;6198170;28;20391;-76
2021/05/26 00:31:00;;;;;;;12.18;8.63;;;;;;;8.20;100.00;100893.56;6197699;28;20109;-75
2021/05/26 00:34:00;;;;;;;12.50;8.40;;;;;;;8.25;100.00;100888.97;6198007;28;20478;-76
2021/05/26 00:37:02;;;;;;;9.52;7.22;;;;;;;8.20;100.00;100885.69;6198191;28;20101;-76
2021/05/26 00:40:04;;;;;;;11.75;7.45;;;;;;;8.19;100.00;100892.69;6198242;28;20134;-76
2021/05/26 00:43:06;;;;;;;12.10;6.38;;;;;;;8.24;100.00;100888.13;6198009;28;20129;-76
2021/05/26 00:46:08;;;;;;;11.55;6.57;;;;;;;8.17;100.00;100881.44;6198187;28;20050;-76
2021/05/26 00:49:08;;;;;;;14.52;7.22;;;;;;;8.18;100.00;100884.94;6197762;28;20101;-76
2021/05/26 00:52:09;;;;;;;13.77;7.03;;;;;;;8.20;100.00;100883.06;6198146;28;20050;-77
2021/05/26 00:55:13;;;;;;;8.75;6.00;;;;;;;8.20;100.00;100880.47;6198320;28;20074;-76
2021/05/26 00:58:14;;;;;;;10.65;6.75;;;;;;;8.25;100.00;100881.97;6197896;28;20043;-76
2021/05/26 01:01:17;;;;;;;9.30;6.72;;;;;;;8.16;100.00;100884.13;6197813;28;20058;-77
2021/05/26 01:04:18;;;;;;;10.40;6.70;;;;;;;8.16;100.00;100876.25;6197912;28;20051;-77
2021/05/26 01:07:19;;;;;;;11.30;7.70;;;;;;;8.13;100.00;100880.72;6197298;28;20456;-76
2021/05/26 01:10:23;;;;;;;8.93;7.70;;;;;;;8.17;100.00;100875.34;6197817;28;20517;-77
2021/05/26 01:13:25;;;;;;;12.20;7.82;;;;;;;8.18;100.00;100874.44;6197843;28;20047;-77
2021/05/26 01:16:26;;;;;;;15.85;8.73;;;;;;;8.15;100.00;100875.41;6197744;28;20046;-76
2021/05/26 01:19:27;;;;;;;16.75;10.35;;;;;;;8.17;100.00;100878.81;6197999;28;20120;-76
2021/05/26 01:22:29;;;;;;;18.73;12.05;;;;;;;8.17;100.00;100878.81;6197389;28;20054;-75
2021/05/26 01:25:30;;;;;;;16.48;12.95;;;;;;;8.19;100.00;100871.75;6197822;28;20078;-75
2021/05/26 01:28:33;;;;;;;22.60;16.02;;;;;;;8.19;100.00;100871.75;6197455;28;20514;-77
2021/05/26 01:31:33;;;;;;;24.52;17.77;;;;;;;8.20;100.00;100870.84;6197577;28;20046;-77
2021/05/26 01:34:34;;;;;;;27.73;18.55;;;;;;;8.25;100.00;100874.13;6197894;28;20088;-77
2021/05/26 01:37:39;;;;;;;28.30;19.35;;;;;;;8.31;100.00;100866.03;6197469;28;20054;-76
2021/05/26 01:40:40;;;;;;;28.00;19.63;;;;;;;8.31;100.00;100871.25;6197422;28;20407;-76
2021/05/26 01:43:41;;;;;;;30.95;21.40;;;;;;;8.34;100.00;100863.25;6202035;28;20054;-77
2021/05/26 01:46:42;;;;;;;31.50;20.90;;;;;;;8.39;100.00;100863.09;6201811;28;20422;-76
2021/05/26 01:49:43;;;;;;;31.10;22.15;;;;;;;8.40;100.00;100864.78;6202047;28;20096;-76
2021/05/26 01:52:45;;;;;;;30.70;20.95;;;;;;;8.44;100.00;100863.75;6201946;28;20557;-76
2021/05/26 01:55:46;;;;;;;33.33;21.20;;;;;;;8.44;100.00;100860.28;6201841;28;20145;-76
2021/05/26 01:58:49;;;;;;;32.10;21.58;;;;;;;8.47;100.00;100871.47;6201745;28;20061;-76
2021/05/26 02:01:50;;;;;;;30.25;20.50;;;;;;;8.46;100.00;100859.31;6201651;28;20050;-76
2021/05/26 02:04:51;;;;;;;28.88;18.23;;;;;;;8.49;100.00;100866.16;6201767;28;20060;-76
2021/05/26 02:07:54;;;;;;;23.45;16.35;;;;;;;8.47;100.00;100854.91;6200898;28;20053;-76
2021/05/26 02:14:14;;;;;;;20.95;14.43;;;;;;;8.50;100.00;100854.78;6201518;28;20121;-76
2021/05/26 02:17:15;;;;;;;27.98;16.60;;;;;;;8.43;100.00;100848.09;6201482;28;20180;-76
2021/05/26 02:20:16;;;;;;;20.98;15.18;;;;;;;8.37;100.00;100851.84;6201617;28;20054;-75
2021/05/26 02:23:17;;;;;;;22.58;15.00;;;;;;;8.39;100.00;100852.63;6201244;28;20054;-75
2021/05/26 02:26:18;;;;;;;22.67;15.93;;;;;;;8.34;100.00;100844.06;6200984;28;20046;-76
2021/05/26 02:29:20;;;;;;;22.45;14.52;;;;;;;8.34;100.00;100846.69;6201063;28;20054;-76
2021/05/26 02:32:22;;;;;;;23.42;16.27;;;;;;;8.30;100.00;100845.13;6201074;28;20078;-76
2021/05/26 02:35:23;;;;;;;19.63;14.35;;;;;;;8.35;100.00;100845.78;6201130;28;20141;-75
2021/05/26 02:38:24;;;;;;;24.42;14.40;;;;;;;8.29;100.00;100840.81;6200767;28;20560;-76
2021/05/26 02:41:25;;;;;;;30.38;16.17;;;;;;;8.32;100.00;100838.91;6200551;28;20054;-76
2021/05/26 02:44:26;;;;;;;18.25;14.00;;;;;;;8.30;100.00;100830.25;6200562;28;20056;-77
2021/05/26 02:47:27;;;;;;;18.55;12.55;;;;;;;8.32;100.00;100838.91;6200450;28;20043;-76
2021/05/26 02:50:28;;;;;;;17.65;13.50;;;;;;;8.29;100.00;100840.81;6200769;28;20470;-75
2021/05/26 02:53:29;;;;;;;22.45;13.15;;;;;;;8.30;100.00;100839.88;6199518;28;20490;-75
2021/05/26 02:56:31;;;;;;;19.15;11.82;;;;;;;8.30;100.00;100839.88;6200717;28;20042;-75
2021/05/26 02:59:32;;;;;;;22.70;12.02;;;;;;;8.28;100.00;100837.34;6200253;28;20494;-75
2021/05/26 03:02:33;;;;;;;16.02;11.63;;;;;;;8.27;100.00;100829.56;6200205;28;20047;-76
2021/05/26 03:05:34;;;;;;;17.92;11.38;;;;;;;8.25;100.00;100827.00;6199877;28;20564;-75
2021/05/26 03:08:36;;;;;;;21.63;13.13;;;;;;;8.28;100.00;100826.03;6199988;28;20531;-75
2021/05/26 03:11:37;;;;;;;15.40;11.57;;;;;;;8.29;100.00;100825.09;6200031;28;20050;-75
2021/05/26 03:14:37;;;;;;;19.17;12.23;;;;;;;8.33;100.00;100822.28;6200301;28;20100;-76
2021/05/26 03:17:39;;;;;;;21.30;13.45;;;;;;;8.30;100.00;100825.03;6199570;28;20505;-76
2021/05/26 03:20:39;;;;;;;21.33;13.40;;;;;;;8.32;100.00;100823.22;6200121;28;20057;-76
2021/05/26 03:23:43;;;;;;;20.48;13.07;;;;;;;8.33;100.00;100830.13;6199673;28;20133;-75
2021/05/26 03:26:45;;;;;;;18.55;13.10;;;;;;;8.31;100.00;100821.50;6199552;28;20105;-75
2021/05/26 03:29:46;;;;;;;18.35;12.27;;;;;;;8.31;100.00;100816.28;6199721;28;20054;-75
2021/05/26 03:32:47;;;;;;;19.85;14.15;;;;;;;8.28;100.00;100818.16;6199669;28;20054;-75
2021/05/26 03:35:48;;;;;;;19.52;14.90;;;;;;;8.29;100.00;100818.09;6199555;28;20066;-76
2021/05/26 03:38:50;;;;;;;24.52;15.77;;;;;;;8.27;100.00;100814.69;6199315;28;20125;-76
2021/05/26 03:41:51;;;;;;;25.27;16.35;;;;;;;8.41;100.00;100815.91;6199451;28;20053;-76
2021/05/26 03:44:52;;;;;;;30.33;17.38;;;;;;;8.32;100.00;100814.50;6199187;28;20407;-77
2021/05/26 03:47:53;;;;;;;22.45;16.25;;;;;;;8.31;100.00;100818.00;6199175;28;20081;-75
2021/05/26 03:50:54;;;;;;;24.35;16.45;;;;;;;8.30;100.00;100814.53;6199218;28;20132;-76
2021/05/26 03:53:56;;;;;;;29.10;15.90;;;;;;;8.31;100.00;100810.16;6199027;28;20181;-76
2021/05/26 03:56:57;;;;;;;23.88;16.17;;;;;;;8.30;100.00;100813.69;6198726;28;20386;-75
2021/05/26 03:59:57;;;;;;;24.08;15.25;;;;;;;8.27;100.00;100808.63;6198822;28;20085;-75
2021/05/26 04:02:58;;;;;;;24.67;16.90;;;;;;;8.28;100.00;100802.47;6198785;28;20057;-76
2021/05/26 04:05:59;;;;;;;20.92;13.90;;;;;;;8.25;100.00;100805.19;6198001;28;20054;-76
2021/05/26 04:09:01;;;;;;;24.58;12.48;;;;;;;8.29;100.00;100804.16;6198748;28;20046;-76
2021/05/26 04:12:02;;;;;;;19.25;11.75;;;;;;;8.24;100.00;100804.34;6198356;28;20072;-75
2021/05/26 04:15:04;;;;;;;17.40;10.63;;;;;;;8.25;100.00;100813.06;6198786;28;20054;-76
2021/05/26 04:18:05;;;;;;;16.83;10.95;;;;;;;8.19;100.00;100801.09;6198350;28;20068;-75
2021/05/26 04:21:09;;;;;;;17.05;10.10;;;;;;;8.31;100.00;100808.41;6198426;28;20054;-75
2021/05/26 04:24:11;;;;;;;15.35;10.77;;;;;;;8.21;100.00;100808.84;6198417;28;20050;-76
2021/05/26 04:27:12;;;;;;;15.05;10.02;;;;;;;8.24;100.00;100804.34;6198377;28;20549;-75
2021/05/26 04:30:13;;;;;;;16.48;9.88;;;;;;;8.20;100.00;100797.53;6198258;28;20053;-76
2021/05/26 04:33:16;;;;;;;17.40;8.93;;;;;;;8.19;100.00;100798.47;6198339;28;20078;-75
2021/05/26 04:36:17;;;;;;;15.25;7.82;;;;;;;8.15;100.00;100796.88;6198278;28;20189;-76
2021/05/26 04:39:18;;;;;;;15.93;8.55;;;;;;;8.19;100.00;100801.09;6198134;28;20045;-77
2021/05/26 04:42:19;;;;;;;15.57;8.15;;;;;;;8.15;100.00;100796.88;6198252;28;20054;-75
2021/05/26 04:45:20;;;;;;;13.23;7.50;;;;;;;8.16;100.00;100795.13;6197920;28;20097;-76
2021/05/26 04:48:21;;;;;;;18.92;8.82;;;;;;;8.18;100.00;100791.53;6197884;28;20050;-75
2021/05/26 04:51:23;;;;;;;17.83;9.48;;;;;;;8.20;100.00;100796.69;6197915;28;20050;-75
2021/05/26 04:54:25;;;;;;;13.45;9.05;;;;;;;8.24;100.00;100798.28;6188505;28;20050;-76
2021/05/26 04:57:26;;;;;;;20.08;10.57;;;;;;;8.44;100.00;100789.56;6194504;28;20441;-76
2021/05/26 05:00:28;;;;;;;20.00;10.45;;;;;;;8.22;100.00;100798.34;6197830;28;20051;-76
2021/05/26 05:03:29;;;;;;;20.08;11.65;;;;;;;8.21;100.00;100798.38;6173858;28;20047;-75
2021/05/26 05:06:30;;;;;;;20.80;11.57;;;;;;;8.22;100.00;100785.25;6173129;28;20234;-75
2021/05/26 05:09:31;;;;;;;26.10;15.13;;;;;;;8.22;100.00;100792.22;6173982;28;20584;-76
2021/05/26 05:12:32;;;;;;;29.08;15.55;;;;;;;8.22;100.00;100787.88;6173523;28;20121;-76
2021/05/26 05:15:33;;;;;;;28.90;15.38;;;;;;;8.26;100.00;100783.31;6180362;28;20126;-75
2021/05/26 05:18:34;;;;;;;27.35;15.50;;;;;;;8.25;100.00;100789.50;6188208;28;20094;-76
2021/05/26 05:21:35;;;;;;;26.90;15.52;;;;;;;8.30;100.00;100788.38;6190344;28;20046;-76
2021/05/26 05:24:36;;;;;;;28.38;16.77;;;;;;;8.29;100.00;100780.59;6190227;28;20086;-76
2021/05/26 05:27:37;;;;;;;30.17;18.33;;;;;;;8.35;100.00;100788.16;6188425;28;20046;-76
2021/05/26 05:30:39;;;;;;;34.72;19.25;;;;;;;8.39;100.00;100782.75;6185344;28;20591;-75
2021/05/26 05:33:39;;;;;;;32.40;18.60;;;;;;;8.48;100.00;100778.03;6202256;28;20046;-76
2021/05/26 05:36:41;;;;;;;31.73;18.85;;;;;;;8.52;100.00;100782.22;6195101;28;20049;-76
2021/05/26 05:39:43;;;;;;;35.53;21.85;;;;;;;8.52;100.00;100777.84;6190975;28;20051;-75
2021/05/26 05:42:44;;;;;;;37.03;21.92;;;;;;;8.61;100.00;100787.91;6194503;28;20047;-76
2021/05/26 05:45:45;;;;;;;36.80;22.92;;;;;;;8.66;100.00;100773.75;6199389;28;20061;-76
2021/05/26 05:48:46;;;;;;;42.65;22.75;;;;;;;8.74;100.00;100782.13;6198743;28;20421;-76
2021/05/26 05:51:47;;;;;;;32.90;21.83;;;;;;;8.73;100.00;100773.41;6202135;28;20053;-75
2021/05/26 05:54:49;;;;;;;34.35;19.30;;;;;;;8.72;100.00;100781.34;6202109;28;20050;-77
2021/05/26 05:57:50;;;;;;;31.02;19.83;;;;;;;8.75;100.00;100768.09;6201515;28;20489;-76
2021/05/26 06:00:52;;;;;;;31.10;20.50;;;;;;;8.81;100.00;100767.81;6201785;28;20604;-76
2021/05/26 06:03:52;;;;;;;30.42;19.05;;;;;;;8.75;100.00;100768.94;6201899;28;20069;-76
2021/05/26 06:06:54;;;;;;;31.90;21.00;;;;;;;8.92;100.00;100770.81;6201035;28;20077;-75
2021/05/26 06:09:55;;;;;;;30.17;19.80;;;;;;;8.87;100.00;100770.16;6201386;28;20053;-76
2021/05/26 06:12:58;;;;;;;28.73;18.67;;;;;;;8.95;100.00;100775.03;6201380;28;20493;-76
2021/05/26 06:15:59;;;;;;;35.17;18.40;;;;;;;8.95;100.00;100765.44;6201662;28;20054;-76
2021/05/26 06:19:00;;;;;;;26.13;16.75;;;;;;;8.94;100.00;100766.34;6201442;28;20080;-75
2021/05/26 06:22:01;;;;;;;29.20;18.10;;;;;;;9.02;100.00;100764.22;6200790;28;20056;-76
2021/05/26 06:25:03;;;;;;;29.05;15.65;;;;;;;9.05;100.00;100764.09;6197110;28;20102;-75
2021/05/26 06:28:04;;;;;;;25.13;16.60;;;;;;;8.98;100.00;100777.53;6185394;28;20049;-74
2021/05/26 06:31:05;;;;;;;24.30;15.25;;;;;;;8.99;100.00;100764.34;6201158;28;20062;-75
2021/05/26 06:34:06;;;;;;;22.52;15.52;;;;;;;9.00;100.00;100766.06;6200777;28;20054;-74
2021/05/26 06:37:07;;;;;;;24.20;14.30;;;;;;;9.11;100.00;100763.78;6199685;28;20073;-76
2021/05/26 06:40:09;;;;;;;22.90;14.15;;;;;;;9.12;100.00;100765.47;6201200;28;20050;-76
2021/05/26 06:43:10;;;;;;;27.77;14.70;;;;;;;9.12;100.00;100765.47;6200789;28;20062;-74
2021/05/26 06:46:11;;;;;;;25.05;14.05;;;;;;;9.17;100.00;100761.78;6201020;28;20050;-75
2021/05/26 06:49:12;;;;;;;20.88;13.98;;;;;;;9.42;100.00;100758.84;6199931;28;20050;-75
2021/05/26 06:52:13;;;;;;;24.63;14.20;;;;;;;9.39;100.00;100760.69;6200485;28;20046;-76
2021/05/26 06:55:15;;;;;;;24.00;12.77;;;;;;;9.36;100.00;100758.22;6199265;28;20493;-76
2021/05/26 06:58:16;;;;;;;23.52;12.07;;;;;;;9.37;100.00;100759.94;6199238;28;20054;-74
2021/05/26 07:01:17;;;;;;;21.60;11.30;;;;;;;9.40;99.78;100759.78;6200529;28;20077;-74
2021/05/26 07:04:18;;;;;;;27.40;13.55;;;;;;;9.42;100.00;100748.38;6200479;28;20088;-74
2021/05/26 07:07:19;;;;;;;24.65;11.73;;;;;;;9.52;100.00;100760.94;6199627;28;20050;-74
2021/05/26 07:10:20;;;;;;;20.42;11.63;;;;;;;9.60;100.00;100753.56;6200243;28;20054;-73
2021/05/26 07:13:21;;;;;;;23.02;11.68;;;;;;;9.63;99.35;100742.09;6199906;28;20113;-74
2021/05/26 07:16:22;;;;;;;19.48;10.93;;;;;;;9.81;100.00;100753.41;6200186;28;20133;-74
2021/05/26 07:19:23;;;;;;;18.52;10.80;;;;;;;9.77;99.59;100752.75;6199590;28;20057;-76
2021/05/26 07:22:24;;;;;;;17.88;9.73;;;;;;;9.79;97.01;100747.41;6199728;28;20113;-74
2021/05/26 07:25:27;;;;;;;29.05;10.85;;;;;;;9.98;99.29;100757.81;6199765;28;20056;-74
2021/05/26 07:28:27;;;;;;;18.13;10.35;;;;;;;10.01;97.11;100760.31;6199718;28;20605;-75
2021/05/26 07:31:28;;;;;;;14.43;8.73;;;;;;;10.07;98.38;100752.09;6199706;28;20058;-74
2021/05/26 07:34:29;;;;;;;20.08;10.18;;;;;;;10.03;97.32;100743.53;6199561;28;20497;-73
2021/05/26 07:37:30;;;;;;;17.02;9.77;;;;;;;10.18;95.73;100749.78;6199531;28;20043;-73
2021/05/26 07:40:32;;;;;;;13.98;8.88;;;;;;;10.19;96.78;100750.63;6198857;28;20428;-74
2021/05/26 07:43:33;;;;;;;20.73;9.35;;;;;;;10.07;97.22;100750.31;6199497;28;20421;-74
2021/05/26 07:46:34;;;;;;;28.38;10.90;;;;;;;10.12;98.53;100745.69;6198767;28;20046;-74
2021/05/26 07:49:35;;;;;;;19.58;11.40;;;;;;;10.04;99.15;100742.63;6198928;28;20058;-74
2021/05/26 07:52:36;;;;;;;19.60;10.70;;;;;;;10.04;98.11;100747.88;6198953;28;20058;-75
2021/05/26 07:55:38;;;;;;;15.77;9.48;;;;;;;10.16;97.14;100743.75;6186646;28;20133;-74
2021/05/26 07:58:39;;;;;;;20.40;10.45;;;;;;;10.04;98.73;100745.25;6198189;28;20042;-73
2021/05/26 08:01:40;;;;;;;21.75;10.00;;;;;;;10.25;96.22;100737.22;6198487;28;20061;-72
2021/05/26 08:04:41;;;;;;;19.60;9.20;;;;;;;10.36;93.99;100740.97;6198953;28;20176;-74
2021/05/26 08:07:42;;;;;;;19.02;10.40;;;;;;;10.27;95.87;100732.75;6198235;28;20046;-73
2021/05/26 08:10:44;;;;;;;19.83;10.10;;;;;;;10.27;96.96;100727.50;6198627;28;20042;-73
2021/05/26 08:13:45;;;;;;;14.05;8.57;;;;;;;10.37;97.02;100733.94;6198474;28;20621;-72
2021/05/26 08:16:46;;;;;;;18.85;9.70;;;;;;;10.37;94.80;100723.44;6198469;28;20054;-73
2021/05/26 08:19:47;;;;;;;14.02;9.13;;;;;;;10.44;94.42;100726.56;6198408;28;20533;-73
2021/05/26 08:22:49;;;;;;;17.85;10.00;;;;;;;10.41;96.97;100738.97;6198148;28;20472;-72
2021/05/26 08:25:50;;;;;;;21.00;10.55;;;;;;;10.49;95.32;100729.81;6198426;28;20108;-72
2021/05/26 08:28:52;;;;;;;24.38;11.23;;;;;;;10.57;96.55;100732.88;6198116;28;20046;-73
2021/05/26 08:31:57;;;;;;;21.45;11.65;;;;;;;10.57;97.28;100740.75;6198369;28;20056;-74
2021/05/26 08:34:58;;;;;;;27.40;11.93;;;;;;;10.76;94.26;100725.69;6198309;28;20129;-77
2021/05/26 08:37:59;;;;;;;24.27;11.43;;;;;;;10.67;94.97;100731.44;6197870;28;20046;-76
2021/05/26 08:41:04;;;;;;;20.58;11.68;;;;;;;10.67;95.31;100726.19;6197913;28;20050;-74
2021/05/26 08:44:07;;;;;;;22.42;11.43;;;;;;;10.79;92.24;100722.91;6197533;28;20515;-74
2021/05/26 08:47:13;;;;;;;19.95;9.80;;;;;;;10.56;91.03;100718.88;6196672;28;20101;-74
2021/05/26 08:50:16;;;;;;;21.35;9.13;;;;;;;10.50;90.87;100716.59;6197597;28;20046;-74
2021/05/26 08:53:17;;;;;;;26.45;10.68;;;;;;;10.32;93.31;100714.97;6196707;28;20061;-74
2021/05/26 08:56:19;;;;;;;14.43;9.60;;;;;;;10.41;91.50;100715.31;6197742;28;20161;-76
2021/05/26 08:59:20;;;;;;;17.80;9.82;;;;;;;10.29;94.77;100715.09;6196869;28;20549;-74
2021/05/26 09:02:21;;;;;;;17.90;10.35;;;;;;;10.34;95.61;100724.44;6197703;28;20050;-72
2021/05/26 09:05:23;;;;;;;19.70;9.38;;;;;;;10.45;94.76;100720.41;6194855;28;20046;-73
2021/05/26 09:08:26;;;;;;;17.75;8.25;;;;;;;10.54;93.92;100715.50;6196252;28;20046;-73
2021/05/26 09:11:32;;;;;;;17.48;8.65;;;;;;;10.62;93.46;100701.94;6197007;28;20536;-74
2021/05/26 09:14:37;;;;;;;15.98;9.18;;;;;;;10.73;93.91;100706.63;6195713;28;20050;-75
2021/05/26 09:17:38;;;;;;;15.98;7.50;;;;;;;10.83;91.83;100699.94;6195360;28;20081;-73
2021/05/26 09:20:39;;;;;;;13.52;7.75;;;;;;;10.92;89.35;100694.16;6197715;28;20121;-72
2021/05/26 09:23:39;;;;;;;15.48;7.57;;;;;;;10.90;90.83;100686.38;6197217;28;20161;-75
2021/05/26 09:26:49;;;;;;;16.60;7.45;;;;;;;10.93;89.63;100685.34;6197129;28;20106;-74
2021/05/26 09:29:55;;;;;;;14.18;7.55;;;;;;;10.96;88.16;100692.22;6194383;28;20117;-75
2021/05/26 09:32:56;;;;;;;14.55;7.45;;;;;;;11.12;87.96;100691.25;6180519;28;20065;-75
2021/05/26 09:36:12;;;;;;;13.30;6.40;;;;;;;11.18;86.78;100683.03;6197286;28;20489;-75
2021/05/26 09:39:12;;;;;;;24.88;7.25;;;;;;;11.28;86.55;100685.97;6196187;28;20474;-76
2021/05/26 09:42:35;;;;;;;15.27;7.13;;;;;;;11.33;87.29;100681.31;6197362;28;20065;-74
2021/05/26 09:45:36;;;;;;;12.38;6.53;;;;;;;11.25;87.30;100680.88;6197041;28;20054;-72
2021/05/26 09:48:37;;;;;;;13.10;7.07;;;;;;;11.26;87.02;100674.69;6196072;28;20051;-73
2021/05/26 09:51:40;;;;;;;18.45;6.00;;;;;;;11.06;88.52;100683.72;6197034;28;20050;-72
2021/05/26 09:54:46;;;;;;;17.50;6.85;;;;;;;11.12;87.66;100678.09;6197148;28;20533;-74
2021/05/26 09:57:51;;;;;;;14.93;5.85;;;;;;;11.38;86.67;100684.50;6196539;28;20431;-75
2021/05/26 10:03:55;;;;;;;22.23;6.68;;;;;;;11.58;83.47;100682.50;6331754;23;20062;-75
2021/05/26 10:06:56;;;;;;;10.52;5.43;;;;;;;11.59;83.09;100678.94;6302234;28;20048;-77
2021/05/26 10:09:57;;;;;;;14.32;6.18;;;;;;;11.67;86.00;100667.03;6299087;28;20056;-80
2021/05/26 10:13:01;;;;;;;20.30;6.05;;;;;;;11.68;84.51;100667.88;6297895;28;20102;-76
2021/05/26 10:16:02;;;;;;;10.82;5.70;;;;;;;11.86;85.54;100663.34;6295586;28;20088;-76
2021/05/26 10:19:04;;;;;;;14.32;6.22;;;;;;;12.06;82.13;100659.50;6261843;28;20045;-78
2021/05/26 10:22:05;;;;;;;17.52;5.75;;;;;;;12.16;80.95;100657.97;6266885;28;20056;-80
2021/05/26 10:25:10;;;;;;;11.70;5.30;;;;;;;11.95;81.53;100652.25;6273069;28;20038;-77
2021/05/26 10:28:26;;;;;;;14.48;5.25;;;;;;;11.77;80.89;100655.97;6263294;28;20051;-76
2021/05/26 10:31:36;;;;;;;16.20;5.15;;;;;;;11.86;82.07;100648.38;6274550;28;20049;-78
2021/05/26 10:35:16;;;;;;;10.07;3.95;;;;;;;12.34;80.08;100642.81;6276116;28;20056;-76
2021/05/26 10:38:17;;;;;;;8.77;4.78;;;;;;;12.59;79.55;100636.88;6274908;28;20045;-78
2021/05/26 10:41:18;;;;;;;10.85;4.60;;;;;;;12.76;76.59;100648.97;6279741;28;20590;-79
2021/05/26 10:44:20;;;;;;;11.77;4.88;;;;;;;12.46;77.28;100635.94;6276405;28;20059;-81
2021/05/26 10:47:42;;;;;;;12.23;4.53;;;;;;;12.37;78.76;100638.22;6274580;28;20045;-80
2021/05/26 10:50:52;;;;;;;8.98;4.75;;;;;;;12.36;80.35;100641.81;6278648;28;20076;-81
2021/05/26 10:53:52;;;;;;;12.63;5.18;;;;;;;12.83;82.22;100642.34;6279676;28;20045;-83
2021/05/26 10:56:58;;;;;;;9.40;3.85;;;;;;;13.24;79.64;100638.84;6267478;28;20108;-83
2021/05/26 11:00:30;;;;;;;12.38;3.78;;;;;;;13.58;74.46;100642.69;6265963;28;20496;-80
2021/05/26 11:03:34;;;;;;;10.68;4.00;;;;;;;13.33;74.74;100636.44;6261719;28;20076;-78
2021/05/26 11:06:35;;;;;;;11.23;4.10;;;;;;;13.25;74.97;100638.72;6262666;28;20049;-80
2021/05/26 11:09:54;;;;;;;8.10;4.55;;;;;;;12.90;75.42;100633.13;6268939;28;20476;-80
2021/05/26 11:12:59;;;;;;;11.75;4.00;;;;;;;12.80;77.69;100634.63;6272734;28;20049;-79
2021/05/26 11:16:00;;;;;;;9.82;5.00;;;;;;;12.86;77.11;100631.63;6260294;28;20072;-78
2021/05/26 11:19:09;;;;;;;11.13;4.72;;;;;;;13.24;75.94;100633.56;6262455;28;20703;-81
2021/05/26 11:22:12;;;;;;;12.13;4.80;;;;;;;13.35;75.87;100624.00;6263617;28;20471;-83
2021/05/26 11:25:14;;;;;;;10.85;4.75;;;;;;;13.86;74.40;100620.56;6264555;28;20044;-81
2021/05/26 11:28:25;;;;;;;6.00;3.28;;;;;;;13.77;72.39;100616.75;6267175;28;20045;-84
2021/05/26 11:31:27;;;;;;;10.25;3.90;;;;;;;13.65;70.05;100605.22;6266161;28;20060;-83
2021/05/26 11:34:28;;;;;;;12.52;4.30;;;;;;;13.45;70.08;100625.06;6262061;28;20415;-79
2021/05/26 11:37:31;;;;;;;9.90;3.63;;;;;;;13.28;74.45;100612.16;6262012;28;20136;-81
2021/05/26 11:40:33;;;;;;;7.07;4.00;;;;;;;13.31;75.97;100619.03;6250022;28;20052;-80
2021/05/26 11:43:35;;;;;;;7.28;3.70;;;;;;;14.27;72.88;100609.72;6254952;28;20123;-79
2021/05/26 11:46:37;;;;;;;8.25;3.47;;;;;;;14.98;68.40;100602.84;6259801;28;20049;-78
2021/05/26 11:49:40;;;;;;;7.50;3.33;;;;;;;15.58;69.74;100614.22;6257608;28;20074;-75
2021/05/26 11:52:42;;;;;;;15.15;3.38;;;;;;;15.82;61.92;100595.66;6259042;28;20042;-78
2021/05/26 11:55:44;;;;;;;12.02;4.65;;;;;;;16.00;59.82;100596.03;6255232;28;20057;-76
2021/05/26 11:58:45;;;;;;;10.93;5.65;;;;;;;15.34;63.14;100588.66;6253671;28;20044;-81
2021/05/26 12:01:47;;;;;;;10.70;4.18;;;;;;;14.78;66.03;100593.72;6260096;28;20045;-83
2021/05/26 12:04:48;;;;;;;7.45;3.67;;;;;;;14.54;66.83;100592.88;6253841;28;20052;-82
2021/05/26 12:07:49;;;;;;;6.13;3.25;;;;;;;14.27;69.59;100580.66;6257881;28;20046;-82
2021/05/26 12:10:52;;;;;;;9.25;2.95;;;;;;;14.02;69.50;100573.59;6262781;28;20756;-84
2021/05/26 12:13:53;;;;;;;8.05;3.10;;;;;;;13.81;70.27;100578.63;6260002;28;20388;-83
2021/05/26 12:16:55;;;;;;;7.55;3.40;;;;;;;13.73;70.07;100580.94;6261939;28;20759;-82
2021/05/26 12:19:56;;;;;;;8.90;2.92;;;;;;;13.84;68.26;100581.03;6260399;28;20110;-79
2021/05/26 12:23:00;;;;;;;6.95;2.65;;;;;;;14.03;68.29;100572.66;6254880;28;20057;-82
2021/05/26 12:26:02;;;;;;;9.50;2.28;;;;;;;14.67;61.61;100562.78;6254519;28;20488;-82
2021/05/26 12:29:09;;;;;;;8.57;2.15;;;;;;;15.12;63.21;100577.97;6260327;28;20049;-79
2021/05/26 12:32:24;;;;;;;6.05;1.77;;;;;;;15.10;61.07;100554.28;6262515;28;20045;-80
2021/05/26 12:35:27;;;;;;;7.43;2.00;;;;;;;15.61;62.00;100556.56;6261858;28;20127;-82
2021/05/26 12:38:35;;;;;;;5.90;2.10;;;;;;;15.43;62.05;100557.97;6276376;28;20053;-83
2021/05/26 12:41:38;;;;;;;6.47;2.38;;;;;;;15.27;60.88;100563.63;6262496;28;20041;-84
2021/05/26 12:44:47;;;;;;;5.80;2.60;;;;;;;15.82;62.25;100559.38;6270582;28;20059;-82
2021/05/26 12:47:49;;;;;;;4.95;1.73;;;;;;;16.60;60.68;100553.13;6268409;28;20041;-82
2021/05/26 12:50:51;;;;;;;6.45;2.00;;;;;;;16.36;60.61;100553.31;6258699;28;20048;-81
2021/05/26 12:53:56;;;;;;;9.40;2.40;;;;;;;15.68;61.79;100549.88;6253674;28;20060;-83
2021/05/26 12:57:06;;;;;;;7.70;2.22;;;;;;;15.22;63.44;100549.88;6248485;28;20053;-83
2021/05/26 13:00:10;;;;;;;5.28;2.28;;;;;;;15.07;62.80;100556.31;6246867;28;20054;-79
2021/05/26 13:03:15;;;;;;;5.47;2.30;;;;;;;14.84;63.64;100555.38;6258908;28;20045;-79
2021/05/26 13:06:18;;;;;;;4.55;2.40;;;;;;;14.80;65.20;100549.47;6269987;28;20049;-80
2021/05/26 13:09:28;;;;;;;6.20;2.22;;;;;;;14.67;62.23;100541.63;6262295;28;20050;-80
2021/05/26 13:12:30;;;;;;;6.70;2.65;;;;;;;14.46;62.62;100544.00;6258578;28;20059;-80
2021/05/26 13:15:33;;;;;;;5.07;2.45;;;;;;;14.33;62.97;100545.84;6264315;28;20107;-79
2021/05/26 13:18:36;;;;;;;8.57;2.83;;;;;;;14.71;63.49;100543.06;6250982;28;20103;-81
2021/05/26 13:21:47;;;;;;;7.15;2.72;;;;;;;15.13;61.62;100540.00;6253012;28;20048;-81
2021/05/26 13:24:47;;;;;;;5.72;2.30;;;;;;;15.06;62.22;100536.94;6270007;28;20050;-81
2021/05/26 13:27:51;;;;;;;5.72;2.03;;;;;;;14.99;60.43;100546.31;6268637;28;20049;-80
2021/05/26 13:30:54;;;;;;;5.63;2.03;;;;;;;14.77;60.74;100557.66;6260019;28;20053;-80
2021/05/26 13:33:56;;;;;;;6.45;2.17;;;;;;;14.75;60.74;100554.25;6261602;28;20049;-84
2021/05/26 13:36:57;;;;;;;11.15;2.45;;;;;;;14.51;61.69;100564.00;6258222;28;20508;-82
2021/05/26 13:39:58;;;;;;;5.15;2.50;;;;;;;14.27;64.21;100580.66;6260581;28;20190;-79
2021/05/26 13:43:00;;;;;;;8.05;3.10;;;;;;;13.40;68.77;100602.56;6277353;28;20071;-81
2021/05/26 13:46:01;;;;;;;20.10;4.13;;;;;;;12.93;73.24;100581.00;6274676;28;20691;-80
2021/05/26 13:49:03;;;;;;;15.73;4.93;;;;;;;12.40;79.14;100598.50;6263642;28;20052;-82
2021/05/26 13:52:04;;;;;;;12.57;5.20;;;;;;;11.92;88.32;100620.81;6263130;28;20049;-78
2021/05/26 13:55:06;;;;;;;12.18;6.18;;;;;;;11.11;96.94;100623.81;6263564;28;20052;-80
2021/05/26 13:58:11;;;;;;;11.95;5.93;;;;;;;10.77;100.00;100627.53;6263325;28;20042;-83
2021/05/26 14:01:12;;;;;;;14.73;6.95;;;;;;;10.24;100.00;100630.44;6265860;28;20067;-83